sensor_id;sensor_type;location;lat;lon;timestamp;pressure;altitude;pressure_sealevel;temperature;humidity
61337;BME280;47212;41.326;2.104;2022-10-30T00:02:47;101989.09;;;19.01;84.48
61337;BME280;47212;41.326;2.104;2022-10-30T00:07:49;101989.63;;;19.03;84.36
61337;BME280;47212;41.326;2.104;2022-10-30T00:12:52;101996.25;;;19.02;84.43
61337;BME280;47212;41.326;2.104;2022-10-30T00:18:05;101986.38;;;18.96;84.43
61337;BME280;47212;41.326;2.104;2022-10-30T00:23:07;101989.72;;;18.93;84.46
61337;BME280;47212;41.326;2.104;2022-10-30T00:28:09;101982.00;;;18.90;84.24
61337;BME280;47212;41.326;2.104;2022-10-30T00:33:11;101980.13;;;18.86;84.17
61337;BME280;47212;41.326;2.104;2022-10-30T00:38:13;101981.56;;;18.78;84.05
61337;BME280;47212;41.326;2.104;2022-10-30T00:43:36;101974.44;;;18.72;84.27
61337;BME280;47212;41.326;2.104;2022-10-30T00:48:39;101968.94;;;18.67;83.85
61337;BME280;47212;41.326;2.104;2022-10-30T00:53:42;101980.56;;;18.64;84.15
61337;BME280;47212;41.326;2.104;2022-10-30T00:58:56;101970.63;;;18.63;84.17
61337;BME280;47212;41.326;2.104;2022-10-30T01:04:04;101971.75;;;18.62;84.36
61337;BME280;47212;41.326;2.104;2022-10-30T01:09:10;101974.50;;;18.62;84.25
61337;BME280;47212;41.326;2.104;2022-10-30T01:14:15;101965.66;;;18.60;84.33
61337;BME280;47212;41.326;2.104;2022-10-30T01:35:24;101962.41;;;18.53;84.25
61337;BME280;47212;41.326;2.104;2022-10-30T01:40:28;101958.56;;;18.49;84.31
61337;BME280;47212;41.326;2.104;2022-10-30T01:45:52;101955.56;;;18.45;84.59
61337;BME280;47212;41.326;2.104;2022-10-30T01:56:28;101944.03;;;18.38;84.48
61337;BME280;47212;41.326;2.104;2022-10-30T02:05:20;101941.59;;;18.31;84.35
61337;BME280;47212;41.326;2.104;2022-10-30T02:10:34;101939.41;;;18.28;84.67
61337;BME280;47212;41.326;2.104;2022-10-30T02:15:36;101938.03;;;18.26;84.51
61337;BME280;47212;41.326;2.104;2022-10-30T02:20:39;101929.53;;;18.22;84.55
61337;BME280;47212;41.326;2.104;2022-10-30T02:25:44;101933.94;;;18.18;84.43
61337;BME280;47212;41.326;2.104;2022-10-30T02:30:47;101933.94;;;18.13;84.50
61337;BME280;47212;41.326;2.104;2022-10-30T02:35:51;101932.34;;;18.07;84.30
61337;BME280;47212;41.326;2.104;2022-10-30T02:40:57;101934.28;;;18.01;84.36
61337;BME280;47212;41.326;2.104;2022-10-30T02:46:02;101935.97;;;17.97;84.36
61337;BME280;47212;41.326;2.104;2022-10-30T02:51:05;101929.63;;;17.97;84.18
61337;BME280;47212;41.326;2.104;2022-10-30T02:56:10;101928.53;;;17.98;84.10
61337;BME280;47212;41.326;2.104;2022-10-30T03:01:22;101934.03;;;17.98;84.03
61337;BME280;47212;41.326;2.104;2022-10-30T03:06:28;101928.53;;;17.98;83.73
61337;BME280;47212;41.326;2.104;2022-10-30T03:11:33;101923.56;;;18.00;83.52
61337;BME280;47212;41.326;2.104;2022-10-30T03:16:35;101911.44;;;18.01;83.64
61337;BME280;47212;41.326;2.104;2022-10-30T03:21:42;101915.28;;;18.00;83.39
61337;BME280;47212;41.326;2.104;2022-10-30T03:26:47;101913.66;;;17.99;83.16
61337;BME280;47212;41.326;2.104;2022-10-30T03:31:49;101902.38;;;17.95;83.15
61337;BME280;47212;41.326;2.104;2022-10-30T03:36:52;101907.63;;;17.92;82.99
61337;BME280;47212;41.326;2.104;2022-10-30T03:41:55;101904.91;;;17.87;82.79
61337;BME280;47212;41.326;2.104;2022-10-30T03:46:57;101909.31;;;17.82;82.51
61337;BME280;47212;41.326;2.104;2022-10-30T03:52:07;101921.47;;;17.76;82.52
61337;BME280;47212;41.326;2.104;2022-10-30T03:57:09;101925.88;;;17.72;82.36
61337;BME280;47212;41.326;2.104;2022-10-30T04:07:53;101929.47;;;17.68;82.12
61337;BME280;47212;41.326;2.104;2022-10-30T04:13:03;101920.66;;;17.66;81.40
61337;BME280;47212;41.326;2.104;2022-10-30T04:18:20;101925.91;;;17.62;81.36
61337;BME280;47212;41.326;2.104;2022-10-30T04:23:23;101925.34;;;17.60;81.23
61337;BME280;47212;41.326;2.104;2022-10-30T04:28:29;101924.81;;;17.58;80.81
61337;BME280;47212;41.326;2.104;2022-10-30T04:33:34;101925.38;;;17.55;81.11
61337;BME280;47212;41.326;2.104;2022-10-30T04:38:36;101923.72;;;17.54;80.52
61337;BME280;47212;41.326;2.104;2022-10-30T04:43:50;101923.72;;;17.54;80.58
61337;BME280;47212;41.326;2.104;2022-10-30T04:49:00;101919.31;;;17.53;80.40
61337;BME280;47212;41.326;2.104;2022-10-30T04:54:16;101911.63;;;17.50;80.49
61337;BME280;47212;41.326;2.104;2022-10-30T04:59:24;101915.50;;;17.44;80.20
61337;BME280;47212;41.326;2.104;2022-10-30T05:04:36;101909.47;;;17.37;80.11
61337;BME280;47212;41.326;2.104;2022-10-30T05:09:40;101903.94;;;17.32;79.79
61337;BME280;47212;41.326;2.104;2022-10-30T05:14:52;101901.22;;;17.27;79.84
61337;BME280;47212;41.326;2.104;2022-10-30T05:20:03;101912.22;;;17.22;79.50
61337;BME280;47212;41.326;2.104;2022-10-30T05:25:09;101909.47;;;17.22;79.58
61337;BME280;47212;41.326;2.104;2022-10-30T05:30:19;101913.88;;;17.23;79.16
61337;BME280;47212;41.326;2.104;2022-10-30T05:35:26;101903.16;;;17.21;79.28
61337;BME280;47212;41.326;2.104;2022-10-30T05:40:33;101899.84;;;17.19;79.48
61337;BME280;47212;41.326;2.104;2022-10-30T05:45:54;101911.13;;;17.17;78.80
61337;BME280;47212;41.326;2.104;2022-10-30T05:51:17;101896.28;;;17.13;78.92
61337;BME280;47212;41.326;2.104;2022-10-30T05:56:39;101900.13;;;17.12;79.07
61337;BME280;47212;41.326;2.104;2022-10-30T06:01:48;101895.19;;;17.09;79.17
61337;BME280;47212;41.326;2.104;2022-10-30T06:06:55;101894.66;;;17.07;79.20
61337;BME280;47212;41.326;2.104;2022-10-30T06:12:18;101897.41;;;17.07;79.20
61337;BME280;47212;41.326;2.104;2022-10-30T06:17:36;101895.75;;;17.06;78.95
61337;BME280;47212;41.326;2.104;2022-10-30T06:23:05;101903.44;;;17.04;78.80
61337;BME280;47212;41.326;2.104;2022-10-30T06:28:26;101904.56;;;17.03;78.58
61337;BME280;47212;41.326;2.104;2022-10-30T06:33:49;101904.56;;;17.03;78.75
61337;BME280;47212;41.326;2.104;2022-10-30T06:38:57;101903.19;;;17.06;79.06
61337;BME280;47212;41.326;2.104;2022-10-30T06:44:11;101920.22;;;17.08;78.52
61337;BME280;47212;41.326;2.104;2022-10-30T06:49:15;101915.53;;;17.18;79.05
61337;BME280;47212;41.326;2.104;2022-10-30T06:54:45;101916.06;;;17.36;78.45
61337;BME280;47212;41.326;2.104;2022-10-30T07:00:12;101920.44;;;17.52;77.78
61337;BME280;47212;41.326;2.104;2022-10-30T07:05:46;101925.34;;;17.65;77.18
61337;BME280;47212;41.326;2.104;2022-10-30T07:11:10;101927.25;;;17.75;76.76
61337;BME280;47212;41.326;2.104;2022-10-30T07:16:30;101935.47;;;17.85;76.40
61337;BME280;47212;41.326;2.104;2022-10-30T07:21:38;101941.75;;;17.96;75.91
61337;BME280;47212;41.326;2.104;2022-10-30T07:26:57;101952.69;;;18.11;75.31
61337;BME280;47212;41.326;2.104;2022-10-30T07:32:26;101956.47;;;18.30;74.63
61337;BME280;47212;41.326;2.104;2022-10-30T07:38:09;101961.91;;;18.45;73.09
61337;BME280;47212;41.326;2.104;2022-10-30T07:43:32;101967.88;;;18.63;72.53
61337;BME280;47212;41.326;2.104;2022-10-30T07:48:57;101976.69;;;18.60;72.99
61337;BME280;47212;41.326;2.104;2022-10-30T07:54:32;101975.34;;;18.57;72.80
61337;BME280;47212;41.326;2.104;2022-10-30T08:00:22;101972.84;;;18.56;73.08
61337;BME280;47212;41.326;2.104;2022-10-30T08:05:49;101976.44;;;18.56;73.33
61337;BME280;47212;41.326;2.104;2022-10-30T08:11:09;101973.69;;;18.61;73.19
61337;BME280;47212;41.326;2.104;2022-10-30T08:16:20;101983.03;;;18.65;72.92
61337;BME280;47212;41.326;2.104;2022-10-30T08:21:27;101984.94;;;18.70;72.50
61337;BME280;47212;41.326;2.104;2022-10-30T08:26:44;101990.94;;;18.77;72.48
61337;BME280;47212;41.326;2.104;2022-10-30T08:31:49;101993.38;;;18.84;72.29
61337;BME280;47212;41.326;2.104;2022-10-30T08:37:15;101998.03;;;18.88;72.15
61337;BME280;47212;41.326;2.104;2022-10-30T08:42:29;101998.28;;;18.92;71.60
61337;BME280;47212;41.326;2.104;2022-10-30T08:47:45;101998.19;;;19.02;71.67
61337;BME280;47212;41.326;2.104;2022-10-30T08:52:59;101990.38;;;19.43;70.85
61337;BME280;47212;41.326;2.104;2022-10-30T08:58:21;101995.66;;;19.92;69.21
61337;BME280;47212;41.326;2.104;2022-10-30T09:03:27;101996.81;;;20.34;68.34
61337;BME280;47212;41.326;2.104;2022-10-30T09:09:11;101999.16;;;20.46;68.03
61337;BME280;47212;41.326;2.104;2022-10-30T09:14:26;101997.44;;;20.50;67.62
61337;BME280;47212;41.326;2.104;2022-10-30T09:19:37;101996.31;;;20.51;66.94
61337;BME280;47212;41.326;2.104;2022-10-30T09:24:43;102007.38;;;20.51;66.89
61337;BME280;47212;41.326;2.104;2022-10-30T09:30:25;102004.69;;;21.02;65.45
61337;BME280;47212;41.326;2.104;2022-10-30T09:35:40;102007.59;;;21.43;64.43
61337;BME280;47212;41.326;2.104;2022-10-30T10:09:21;102008.28;;;21.95;63.99
61337;BME280;47212;41.326;2.104;2022-10-30T10:14:45;102007.66;;;21.84;64.73
61337;BME280;47212;41.326;2.104;2022-10-30T10:19:59;102013.63;;;21.78;64.76
61337;BME280;47212;41.326;2.104;2022-10-30T10:25:19;102017.50;;;21.77;63.92
61337;BME280;47212;41.326;2.104;2022-10-30T10:30:48;102010.75;;;21.83;64.19
61337;BME280;47212;41.326;2.104;2022-10-30T10:36:15;102009.75;;;22.06;63.30
61337;BME280;47212;41.326;2.104;2022-10-30T10:52:40;102009.81;;;22.78;62.81
61337;BME280;47212;41.326;2.104;2022-10-30T10:57:48;102008.97;;;22.92;62.84
61337;BME280;47212;41.326;2.104;2022-10-30T11:03:09;102002.66;;;23.00;61.76
61337;BME280;47212;41.326;2.104;2022-10-30T11:08:34;102004.00;;;23.33;63.63
61337;BME280;47212;41.326;2.104;2022-10-30T11:13:43;101999.97;;;23.62;63.38
61337;BME280;47212;41.326;2.104;2022-10-30T11:18:56;102001.84;;;23.83;60.62
61337;BME280;47212;41.326;2.104;2022-10-30T11:24:02;101996.50;;;24.04;61.89
61337;BME280;47212;41.326;2.104;2022-10-30T11:29:24;101986.00;;;24.41;60.24
61337;BME280;47212;41.326;2.104;2022-10-30T11:34:34;101990.44;;;24.59;60.79
61337;BME280;47212;41.326;2.104;2022-10-30T11:40:22;101975.19;;;24.83;60.14
61337;BME280;47212;41.326;2.104;2022-10-30T11:45:36;101958.31;;;25.05;58.92
61337;BME280;47212;41.326;2.104;2022-10-30T11:50:59;101961.25;;;25.00;58.63
61337;BME280;47212;41.326;2.104;2022-10-30T11:56:22;101960.97;;;24.58;60.12
61337;BME280;47212;41.326;2.104;2022-10-30T12:02:00;101945.31;;;24.23;61.44
61337;BME280;47212;41.326;2.104;2022-10-30T12:12:54;101945.38;;;23.66;63.53
61337;BME280;47212;41.326;2.104;2022-10-30T12:18:07;101945.41;;;23.43;63.42
61337;BME280;47212;41.326;2.104;2022-10-30T12:23:21;101944.38;;;23.39;64.07
61337;BME280;47212;41.326;2.104;2022-10-30T12:28:28;101931.38;;;23.48;63.90
61337;BME280;47212;41.326;2.104;2022-10-30T12:45:06;101914.84;;;23.43;64.07
61337;BME280;47212;41.326;2.104;2022-10-30T12:50:24;101913.31;;;23.60;63.72
61337;BME280;47212;41.326;2.104;2022-10-30T12:56:05;101898.69;;;24.11;63.12
61337;BME280;47212;41.326;2.104;2022-10-30T13:01:43;101901.84;;;24.53;60.31
61337;BME280;47212;41.326;2.104;2022-10-30T13:12:31;101895.03;;;24.97;60.05
61337;BME280;47212;41.326;2.104;2022-10-30T13:17:39;101883.41;;;25.03;60.55
61337;BME280;47212;41.326;2.104;2022-10-30T13:23:00;101873.09;;;25.04;58.72
61337;BME280;47212;41.326;2.104;2022-10-30T13:28:35;101883.09;;;24.96;58.18
61337;BME280;47212;41.326;2.104;2022-10-30T13:51:41;101868.13;;;24.45;59.95
61337;BME280;47212;41.326;2.104;2022-10-30T13:56:52;101866.66;;;24.48;60.60
61337;BME280;47212;41.326;2.104;2022-10-30T14:13:19;101853.84;;;24.12;63.03
61337;BME280;47212;41.326;2.104;2022-10-30T14:24:25;101852.38;;;23.89;64.51
61337;BME280;47212;41.326;2.104;2022-10-30T14:29:48;101842.88;;;23.81;65.40
61337;BME280;47212;41.326;2.104;2022-10-30T14:35:34;101847.28;;;23.74;66.05
61337;BME280;47212;41.326;2.104;2022-10-30T14:40:54;101847.59;;;23.64;66.37
61337;BME280;47212;41.326;2.104;2022-10-30T14:46:43;101840.38;;;23.63;67.44
61337;BME280;47212;41.326;2.104;2022-10-30T15:09:13;101853.63;;;23.26;69.12
61337;BME280;47212;41.326;2.104;2022-10-30T15:14:38;101851.28;;;23.11;69.95
61337;BME280;47212;41.326;2.104;2022-10-30T15:19:58;101856.28;;;23.00;70.24
61337;BME280;47212;41.326;2.104;2022-10-30T15:25:16;101850.69;;;22.92;71.02
61337;BME280;47212;41.326;2.104;2022-10-30T15:30:31;101852.81;;;22.86;70.89
61337;BME280;47212;41.326;2.104;2022-10-30T15:35:46;101840.69;;;22.82;71.10
61337;BME280;47212;41.326;2.104;2022-10-30T15:41:04;101857.44;;;22.77;72.33
61337;BME280;47212;41.326;2.104;2022-10-30T15:46:18;101851.72;;;22.73;71.95
61337;BME280;47212;41.326;2.104;2022-10-30T15:51:29;101854.63;;;22.68;72.32
61337;BME280;47212;41.326;2.104;2022-10-30T15:56:48;101867.00;;;22.62;72.94
61337;BME280;47212;41.326;2.104;2022-10-30T16:02:22;101857.75;;;22.53;73.17
61337;BME280;47212;41.326;2.104;2022-10-30T16:07:47;101854.63;;;22.46;74.26
61337;BME280;47212;41.326;2.104;2022-10-30T16:12:59;101853.72;;;22.37;74.16
61337;BME280;47212;41.326;2.104;2022-10-30T16:18:17;101858.59;;;22.31;74.61
61337;BME280;47212;41.326;2.104;2022-10-30T16:23:23;101864.44;;;22.30;74.57
61337;BME280;47212;41.326;2.104;2022-10-30T16:28:49;101854.41;;;22.20;75.57
61337;BME280;47212;41.326;2.104;2022-10-30T16:34:04;101849.31;;;22.13;75.32
61337;BME280;47212;41.326;2.104;2022-10-30T16:39:26;101861.66;;;22.07;75.82
61337;BME280;47212;41.326;2.104;2022-10-30T16:44:49;101854.66;;;21.96;76.04
61337;BME280;47212;41.326;2.104;2022-10-30T16:50:05;101853.25;;;21.85;76.82
61337;BME280;47212;41.326;2.104;2022-10-30T16:55:37;101856.25;;;21.75;78.46
61337;BME280;47212;41.326;2.104;2022-10-30T17:00:48;101853.69;;;21.65;78.29
61337;BME280;47212;41.326;2.104;2022-10-30T17:12:10;101861.81;;;21.47;79.04
61337;BME280;47212;41.326;2.104;2022-10-30T17:17:33;101875.25;;;21.40;80.23
61337;BME280;47212;41.326;2.104;2022-10-30T17:22:50;101870.94;;;21.34;79.66
61337;BME280;47212;41.326;2.104;2022-10-30T17:28:28;101874.63;;;21.29;80.86
61337;BME280;47212;41.326;2.104;2022-10-30T17:34:20;101871.16;;;21.24;81.42
61337;BME280;47212;41.326;2.104;2022-10-30T17:39:31;101882.28;;;21.19;80.52
61337;BME280;47212;41.326;2.104;2022-10-30T17:45:12;101893.97;;;21.16;81.82
61337;BME280;47212;41.326;2.104;2022-10-30T17:51:00;101907.59;;;21.12;82.02
61337;BME280;47212;41.326;2.104;2022-10-30T17:56:29;101912.94;;;21.09;82.12
61337;BME280;47212;41.326;2.104;2022-10-30T18:01:39;101907.19;;;21.05;81.45
61337;BME280;47212;41.326;2.104;2022-10-30T18:06:54;101914.97;;;21.03;81.90
61337;BME280;47212;41.326;2.104;2022-10-30T18:12:03;101909.75;;;21.02;81.88
61337;BME280;47212;41.326;2.104;2022-10-30T18:17:11;101912.31;;;20.98;82.13
61337;BME280;47212;41.326;2.104;2022-10-30T18:22:13;101923.16;;;20.94;82.25
61337;BME280;47212;41.326;2.104;2022-10-30T18:27:27;101929.00;;;20.93;82.58
61337;BME280;47212;41.326;2.104;2022-10-30T18:32:35;101934.00;;;20.91;82.74
61337;BME280;47212;41.326;2.104;2022-10-30T18:37:40;101931.84;;;20.88;82.82
61337;BME280;47212;41.326;2.104;2022-10-30T18:42:45;101940.47;;;20.86;82.93
61337;BME280;47212;41.326;2.104;2022-10-30T18:47:54;101939.13;;;20.84;83.55
61337;BME280;47212;41.326;2.104;2022-10-30T18:53:20;101930.28;;;20.82;84.29
61337;BME280;47212;41.326;2.104;2022-10-30T18:58:24;101928.41;;;20.77;84.05
61337;BME280;47212;41.326;2.104;2022-10-30T19:03:50;101943.16;;;20.73;84.45
61337;BME280;47212;41.326;2.104;2022-10-30T19:08:59;101946.22;;;20.71;84.24
61337;BME280;47212;41.326;2.104;2022-10-30T19:14:11;101946.81;;;20.68;84.59
61337;BME280;47212;41.326;2.104;2022-10-30T19:19:25;101941.28;;;20.68;84.54
61337;BME280;47212;41.326;2.104;2022-10-30T19:24:34;101942.72;;;20.65;84.60
61337;BME280;47212;41.326;2.104;2022-10-30T19:29:41;101934.19;;;20.62;84.77
61337;BME280;47212;41.326;2.104;2022-10-30T19:34:52;101937.56;;;20.59;84.79
61337;BME280;47212;41.326;2.104;2022-10-30T19:39:58;101941.44;;;20.58;84.81
61337;BME280;47212;41.326;2.104;2022-10-30T19:45:04;101949.22;;;20.56;85.01
61337;BME280;47212;41.326;2.104;2022-10-30T19:50:38;101929.88;;;20.56;85.83
61337;BME280;47212;41.326;2.104;2022-10-30T19:55:45;101935.69;;;20.54;84.96
61337;BME280;47212;41.326;2.104;2022-10-30T20:01:09;101937.63;;;20.54;86.10
61337;BME280;47212;41.326;2.104;2022-10-30T20:06:26;101934.66;;;20.50;85.23
61337;BME280;47212;41.326;2.104;2022-10-30T20:11:40;101946.53;;;20.51;85.32
61337;BME280;47212;41.326;2.104;2022-10-30T20:16:44;101942.13;;;20.50;85.51
61337;BME280;47212;41.326;2.104;2022-10-30T20:21:52;101952.66;;;20.48;85.79
61337;BME280;47212;41.326;2.104;2022-10-30T20:27:02;101948.56;;;20.45;86.96
61337;BME280;47212;41.326;2.104;2022-10-30T20:32:08;101939.75;;;20.43;85.22
61337;BME280;47212;41.326;2.104;2022-10-30T20:37:15;101934.81;;;20.40;84.73
61337;BME280;47212;41.326;2.104;2022-10-30T20:42:21;101910.19;;;20.39;84.75
61337;BME280;47212;41.326;2.104;2022-10-30T20:47:31;101913.25;;;20.37;84.27
61337;BME280;47212;41.326;2.104;2022-10-30T20:52:37;101918.56;;;20.33;84.07
61337;BME280;47212;41.326;2.104;2022-10-30T20:57:52;101919.16;;;20.30;84.24
61337;BME280;47212;41.326;2.104;2022-10-30T21:02:55;101907.06;;;20.26;83.71
61337;BME280;47212;41.326;2.104;2022-10-30T21:07:58;101919.53;;;20.24;83.91
61337;BME280;47212;41.326;2.104;2022-10-30T21:13:03;101924.25;;;20.23;83.69
61337;BME280;47212;41.326;2.104;2022-10-30T21:18:12;101932.84;;;20.22;83.78
61337;BME280;47212;41.326;2.104;2022-10-30T21:23:16;101936.72;;;20.21;84.26
61337;BME280;47212;41.326;2.104;2022-10-30T21:28:19;101930.59;;;20.24;84.48
61337;BME280;47212;41.326;2.104;2022-10-30T21:33:28;101907.13;;;20.21;84.63
61337;BME280;47212;41.326;2.104;2022-10-30T21:38:33;101927.09;;;20.18;84.72
61337;BME280;47212;41.326;2.104;2022-10-30T21:43:48;101934.84;;;20.16;84.83
61337;BME280;47212;41.326;2.104;2022-10-30T21:48:54;101933.50;;;20.14;84.47
61337;BME280;47212;41.326;2.104;2022-10-30T21:54:17;101916.16;;;20.08;85.26
61337;BME280;47212;41.326;2.104;2022-10-30T21:59:23;101920.06;;;20.07;84.34
61337;BME280;47212;41.326;2.104;2022-10-30T22:04:28;101921.19;;;20.06;84.40
61337;BME280;47212;41.326;2.104;2022-10-30T22:09:37;101929.75;;;20.04;84.19
61337;BME280;47212;41.326;2.104;2022-10-30T22:14:48;101933.94;;;20.02;84.40
61337;BME280;47212;41.326;2.104;2022-10-30T22:19:54;101928.41;;;20.02;84.23
61337;BME280;47212;41.326;2.104;2022-10-30T22:24:59;101939.47;;;20.02;84.26
61337;BME280;47212;41.326;2.104;2022-10-30T22:30:11;101929.53;;;20.01;84.45
61337;BME280;47212;41.326;2.104;2022-10-30T22:35:18;101933.41;;;20.00;84.27
61337;BME280;47212;41.326;2.104;2022-10-30T22:40:27;101940.88;;;19.99;84.42
61337;BME280;47212;41.326;2.104;2022-10-30T22:45:36;101927.38;;;19.98;84.04
61337;BME280;47212;41.326;2.104;2022-10-30T22:50:45;101915.78;;;19.96;84.14
61337;BME280;47212;41.326;2.104;2022-10-30T22:55:56;101931.00;;;19.93;84.36
61337;BME280;47212;41.326;2.104;2022-10-30T23:01:26;101921.34;;;19.91;84.28
61337;BME280;47212;41.326;2.104;2022-10-30T23:06:43;101928.00;;;19.90;84.33
61337;BME280;47212;41.326;2.104;2022-10-30T23:11:56;101886.84;;;19.88;84.38
61337;BME280;47212;41.326;2.104;2022-10-30T23:17:04;101909.25;;;19.87;84.67
61337;BME280;47212;41.326;2.104;2022-10-30T23:22:11;101917.75;;;19.90;84.55
61337;BME280;47212;41.326;2.104;2022-10-30T23:27:24;101918.06;;;19.89;84.59
61337;BME280;47212;41.326;2.104;2022-10-30T23:32:32;101925.81;;;19.87;84.85
61337;BME280;47212;41.326;2.104;2022-10-30T23:37:43;101914.25;;;19.85;85.16
61337;BME280;47212;41.326;2.104;2022-10-30T23:42:57;101913.72;;;19.83;84.81
61337;BME280;47212;41.326;2.104;2022-10-30T23:47:59;101907.97;;;19.79;84.71
61337;BME280;47212;41.326;2.104;2022-10-30T23:53:21;101902.22;;;19.76;85.11
61337;BME280;47212;41.326;2.104;2022-10-30T23:58:35;101903.91;;;19.71;85.06
